Time;durP1;ratioP1;P1;durP2;ratioP2;P2;SDS_P1;SDS_P2;PMS_P1;PMS_P2;Temp;Humidity;BMP_temperature;BMP_pressure;BME280_temperature;BME280_humidity;BME280_pressure;Samples;Min_cycle;Max_cycle;Signal;HPM_P1;HPM_P2
2021/04/16 00:00:43;;;;;;;6.07;4.05;;;;;;;0.67;60.62;96336.97;5108024;27;20399;-46
2021/04/16 00:03:21;;;;;;;6.45;4.40;;;;;;;0.72;60.44;96331.69;5081981;27;20427;-44
2021/04/16 00:05:48;;;;;;;7.22;4.10;;;;;;;0.56;60.65;96330.81;5069008;28;20459;-43
2021/04/16 00:08:20;;;;;;;6.72;4.40;;;;;;;0.54;61.92;96322.28;5057582;28;20055;-44
2021/04/16 00:10:53;;;;;;;7.65;4.35;;;;;;;0.51;60.97;96317.47;5049552;28;20136;-45
2021/04/16 00:13:21;;;;;;;6.77;4.13;;;;;;;0.57;61.34;96324.41;5049174;28;20099;-42
2021/04/16 00:15:48;;;;;;;7.43;4.00;;;;;;;0.62;61.04;96311.16;5048315;28;20356;-42
2021/04/16 00:18:19;;;;;;;8.45;4.20;;;;;;;0.60;60.94;96315.91;5048323;28;20050;-43
2021/04/16 00:20:45;;;;;;;5.20;3.85;;;;;;;0.62;61.23;96319.13;5048255;28;20528;-43
2021/04/16 00:23:13;;;;;;;6.05;4.35;;;;;;;0.63;61.79;96310.06;5056736;28;20045;-44
2021/04/16 00:25:39;;;;;;;5.00;4.07;;;;;;;0.45;60.80;96310.50;5064481;28;20517;-46
2021/04/16 00:28:08;;;;;;;5.28;4.20;;;;;;;0.51;62.47;96311.34;5067320;28;20057;-46
2021/04/16 00:30:45;;;;;;;6.65;4.18;;;;;;;0.56;61.72;96309.50;5067900;28;20057;-44
2021/04/16 00:33:12;;;;;;;5.70;3.92;;;;;;;0.58;62.01;96299.38;5066647;28;20130;-45
2021/04/16 00:35:39;;;;;;;6.70;3.90;;;;;;;0.57;62.62;96308.44;5067031;28;20135;-45
2021/04/16 00:38:07;;;;;;;5.22;4.00;;;;;;;0.52;62.00;96304.94;5065335;28;20063;-44
2021/04/16 00:40:39;;;;;;;6.03;3.92;;;;;;;0.58;62.06;96306.56;5059050;28;20056;-46
2021/04/16 00:43:07;;;;;;;9.57;4.00;;;;;;;0.58;62.36;96307.38;5056877;28;20598;-46
2021/04/16 00:45:35;;;;;;;7.45;4.32;;;;;;;0.43;61.82;96304.66;5068137;28;20464;-44
2021/04/16 00:48:06;;;;;;;5.47;4.28;;;;;;;0.48;62.17;96307.31;5067340;28;20120;-44
2021/04/16 00:50:46;;;;;;;5.25;3.88;;;;;;;0.30;62.47;96305.13;5066637;28;20431;-44
2021/04/16 00:53:15;;;;;;;6.70;4.10;;;;;;;0.51;63.41;96296.16;5057746;28;20446;-44
2021/04/16 00:55:42;;;;;;;6.25;4.30;;;;;;;0.49;62.73;96298.31;5048078;28;20073;-44
2021/04/16 00:58:10;;;;;;;6.13;4.35;;;;;;;0.38;62.78;96301.97;5047806;28;20072;-45
2021/04/16 01:00:37;;;;;;;5.65;3.88;;;;;;;0.34;62.67;96296.34;5046936;28;20045;-47
2021/04/16 01:03:05;;;;;;;5.93;4.00;;;;;;;0.20;62.83;96296.00;5046250;28;20506;-47
2021/04/16 01:05:32;;;;;;;5.70;4.22;;;;;;;0.07;63.39;96285.81;5062964;28;20048;-46
2021/04/16 01:07:59;;;;;;;5.65;3.80;;;;;;;0.18;64.73;96297.31;5063690;28;20057;-44
2021/04/16 01:10:25;;;;;;;6.05;4.32;;;;;;;0.27;63.69;96287.81;5067257;28;20076;-46
2021/04/16 01:12:52;;;;;;;6.38;4.32;;;;;;;0.32;63.96;96295.00;5063841;28;20045;-46
2021/04/16 01:15:30;;;;;;;6.65;4.18;;;;;;;0.37;62.54;96289.72;5051506;28;20052;-47
2021/04/16 01:17:59;;;;;;;4.43;3.53;;;;;;;0.43;63.59;96289.47;5054006;28;20068;-46
2021/04/16 01:20:31;;;;;;;8.55;4.05;;;;;;;0.18;62.86;96284.81;5053640;28;20048;-44
2021/04/16 01:23:06;;;;;;;5.65;3.80;;;;;;;0.03;64.21;96273.28;5053091;28;20111;-44
2021/04/16 01:25:33;;;;;;;5.43;3.90;;;;;;;0.07;64.36;96287.69;5054229;28;20126;-43
2021/04/16 01:27:59;;;;;;;6.50;4.25;;;;;;;0.08;64.25;96290.06;5051111;28;20080;-45
2021/04/16 01:30:30;;;;;;;5.50;4.07;;;;;;;-0.06;64.87;96288.94;5034015;28;20049;-44
2021/04/16 01:32:57;;;;;;;5.70;4.28;;;;;;;0.01;64.39;96288.72;5048860;28;20102;-46
2021/04/16 01:35:32;;;;;;;6.45;4.18;;;;;;;-0.01;65.09;96283.63;5053663;28;20045;-44
2021/04/16 01:38:03;;;;;;;7.10;4.13;;;;;;;-0.21;64.39;96284.28;5050999;28;20498;-44
2021/04/16 01:40:29;;;;;;;5.22;4.07;;;;;;;-0.37;65.16;96275.38;5039710;28;20076;-44
2021/04/16 01:42:56;;;;;;;5.82;3.92;;;;;;;-0.34;65.73;96277.53;5033779;28;20467;-47
2021/04/16 01:45:26;;;;;;;6.35;3.97;;;;;;;-0.29;66.17;96280.25;5051014;28;20122;-45
2021/04/16 01:48:02;;;;;;;6.53;4.13;;;;;;;-0.45;65.49;96278.53;5053625;28;20052;-46
2021/04/16 01:50:30;;;;;;;5.75;4.18;;;;;;;-0.37;66.66;96272.72;5052647;28;20474;-43
2021/04/16 01:52:57;;;;;;;6.53;4.20;;;;;;;-0.39;67.38;96266.88;5052555;28;20095;-46
2021/04/16 01:55:24;;;;;;;6.78;4.63;;;;;;;-0.41;65.44;96271.66;5040771;28;20081;-45
2021/04/16 01:57:51;;;;;;;5.95;4.70;;;;;;;-0.45;66.30;96267.91;5041858;28;20053;-44
2021/04/16 02:00:23;;;;;;;6.50;4.35;;;;;;;-0.43;66.81;96265.78;5052471;28;20140;-43
2021/04/16 02:02:49;;;;;;;6.22;4.03;;;;;;;-0.38;67.30;96268.47;5052561;28;20045;-44
2021/04/16 02:05:16;;;;;;;5.75;4.32;;;;;;;-0.39;67.82;96271.38;5046421;22;20499;-48
2021/04/16 02:07:43;;;;;;;6.32;4.20;;;;;;;-0.35;66.74;96267.19;5013004;28;20468;-47
2021/04/16 02:10:11;;;;;;;7.15;4.50;;;;;;;-0.35;66.49;96269.84;5013412;28;20081;-48
2021/04/16 02:12:38;;;;;;;7.35;4.13;;;;;;;-0.41;67.02;96268.97;5006435;28;20108;-50
2021/04/16 02:15:06;;;;;;;6.80;4.13;;;;;;;-0.45;66.90;96265.25;5005700;28;20051;-46
2021/04/16 02:17:33;;;;;;;7.13;3.80;;;;;;;-0.52;66.88;96261.97;4974117;28;20576;-43
2021/04/16 02:20:04;;;;;;;6.72;4.28;;;;;;;-0.50;67.28;96265.19;4973931;28;20050;-48
2021/04/16 02:22:31;;;;;;;5.38;4.18;;;;;;;-0.54;67.90;96266.75;4982971;28;20073;-49
2021/04/16 02:24:57;;;;;;;5.70;3.75;;;;;;;-0.50;67.57;96260.66;4990201;28;20058;-48
2021/04/16 02:27:26;;;;;;;5.32;3.95;;;;;;;-0.52;67.50;96257.47;4984085;28;20506;-48
2021/04/16 02:29:55;;;;;;;7.55;4.30;;;;;;;-0.53;68.66;96261.16;4992743;28;20078;-50
2021/04/16 02:32:23;;;;;;;7.00;4.75;;;;;;;-0.57;67.92;96256.63;4984067;28;20046;-48
2021/04/16 02:34:50;;;;;;;7.47;4.15;;;;;;;-0.48;68.38;96258.56;4987290;28;20074;-46
2021/04/16 02:37:19;;;;;;;6.45;4.55;;;;;;;-0.46;67.86;96255.66;4991674;28;20554;-47
2021/04/16 02:39:46;;;;;;;6.13;4.47;;;;;;;-0.44;68.71;96258.06;4988204;28;20039;-47
2021/04/16 02:42:13;;;;;;;5.55;4.20;;;;;;;-0.46;68.41;96250.31;4979216;28;20045;-49
2021/04/16 02:44:41;;;;;;;5.90;4.90;;;;;;;-0.53;68.50;96255.06;4973114;28;20488;-48
2021/04/16 02:47:09;;;;;;;7.63;4.38;;;;;;;-0.60;68.76;96251.81;4973699;28;20075;-47
2021/04/16 02:49:35;;;;;;;6.13;4.13;;;;;;;-0.51;68.25;96245.00;4988916;28;20148;-47
2021/04/16 02:52:03;;;;;;;6.53;4.30;;;;;;;-0.59;68.32;96245.44;4978992;28;20482;-48
2021/04/16 02:54:30;;;;;;;7.07;4.20;;;;;;;-0.60;68.85;96249.94;4986428;28;20054;-51
2021/04/16 02:56:57;;;;;;;6.22;4.53;;;;;;;-0.69;69.40;96248.00;4992422;28;20092;-46
2021/04/16 02:59:23;;;;;;;5.88;4.20;;;;;;;-0.69;69.97;96248.00;4983562;28;20121;-48
2021/04/16 03:01:51;;;;;;;5.78;4.10;;;;;;;-0.78;69.93;96248.50;4972284;28;20074;-47
2021/04/16 03:04:22;;;;;;;7.88;4.38;;;;;;;-0.65;69.77;96244.63;4983559;28;20050;-48
2021/04/16 03:06:48;;;;;;;6.80;3.92;;;;;;;-0.53;69.90;96244.44;5008051;28;20112;-50
2021/04/16 03:09:15;;;;;;;5.55;4.05;;;;;;;-0.53;70.06;96247.09;4981536;28;20436;-50
2021/04/16 03:11:42;;;;;;;5.90;4.13;;;;;;;-0.46;69.57;96239.69;4979085;28;20133;-49
2021/04/16 03:14:09;;;;;;;6.65;4.55;;;;;;;-0.44;69.99;96240.25;4980867;28;20050;-50
2021/04/16 03:16:35;;;;;;;5.90;4.00;;;;;;;-0.55;69.42;96239.38;4991357;28;20133;-51
2021/04/16 03:19:04;;;;;;;5.88;4.28;;;;;;;-0.54;69.37;96238.31;5023522;28;20100;-46
2021/04/16 03:21:30;;;;;;;5.55;4.07;;;;;;;-0.59;69.98;96237.47;4989613;28;20507;-50
2021/04/16 03:23:57;;;;;;;6.53;4.10;;;;;;;-0.64;69.19;96240.09;4991561;28;20070;-48
2021/04/16 03:26:24;;;;;;;7.63;3.85;;;;;;;-0.63;70.28;96241.69;4991083;28;20104;-45
2021/04/16 03:28:55;;;;;;;6.93;4.38;;;;;;;-0.66;70.26;96237.69;4991352;28;20054;-46
2021/04/16 03:31:24;;;;;;;5.00;4.00;;;;;;;-0.73;69.97;96235.22;4984990;28;20113;-50
2021/04/16 03:33:51;;;;;;;6.10;4.40;;;;;;;-0.75;69.99;96236.53;4976516;28;20077;-48
2021/04/16 03:36:18;;;;;;;7.47;4.75;;;;;;;-0.73;70.62;96235.22;4991629;28;20050;-48
2021/04/16 03:38:46;;;;;;;6.88;4.78;;;;;;;-0.80;71.08;96239.16;4991887;28;20058;-47
2021/04/16 03:41:12;;;;;;;7.68;4.80;;;;;;;-0.61;70.77;96236.94;4983420;28;20078;-48
2021/04/16 03:43:40;;;;;;;6.47;4.82;;;;;;;-0.77;70.44;96238.66;4984193;28;21852;-46
2021/04/16 03:46:07;;;;;;;8.35;5.10;;;;;;;-0.89;71.34;96227.38;4990383;28;20081;-46
2021/04/16 03:48:34;;;;;;;6.43;5.00;;;;;;;-1.02;71.38;96233.91;4991721;28;20054;-46
2021/04/16 03:51:00;;;;;;;8.48;4.95;;;;;;;-0.94;71.13;96238.78;4991933;28;20054;-45
2021/04/16 03:53:27;;;;;;;10.48;5.20;;;;;;;-0.99;71.09;96244.03;4989643;28;20052;-49
2021/04/16 03:55:56;;;;;;;8.60;5.35;;;;;;;-0.98;71.42;96241.09;4991845;28;20050;-47
2021/04/16 03:58:22;;;;;;;8.43;5.15;;;;;;;-0.95;70.97;96242.47;4991499;28;20456;-50
2021/04/16 04:00:49;;;;;;;10.27;6.10;;;;;;;-1.07;71.60;96239.16;4980899;28;20090;-46
2021/04/16 04:03:21;;;;;;;8.40;5.85;;;;;;;-1.02;71.82;96245.31;4991452;28;20073;-47
2021/04/16 04:05:48;;;;;;;7.78;5.57;;;;;;;-1.01;71.48;96238.16;4991578;28;20149;-48
2021/04/16 04:08:15;;;;;;;8.10;6.07;;;;;;;-1.05;71.69;96237.06;4990291;28;20055;-50
2021/04/16 04:10:41;;;;;;;8.73;6.05;;;;;;;-0.91;72.35;96238.28;4979751;28;20046;-46
2021/04/16 04:13:10;;;;;;;11.73;6.72;;;;;;;-0.95;71.83;96237.94;4981795;28;20093;-49
2021/04/16 04:15:37;;;;;;;10.65;6.38;;;;;;;-0.99;71.97;96241.38;4971891;28;20054;-48
2021/04/16 04:18:24;;;;;;;15.73;6.57;;;;;;;-0.99;72.46;96249.34;4972168;28;20131;-50
2021/04/16 04:20:50;;;;;;;8.40;5.85;;;;;;;-0.91;72.61;96248.91;4974786;28;20047;-50
2021/04/16 04:23:17;;;;;;;12.73;6.10;;;;;;;-1.01;72.70;96251.44;4990868;28;20136;-47
2021/04/16 04:25:43;;;;;;;9.35;6.57;;;;;;;-1.00;72.60;96250.41;4990273;28;20205;-47
2021/04/16 04:28:10;;;;;;;9.52;6.40;;;;;;;-1.03;72.79;96256.22;4991101;28;20054;-50
2021/04/16 04:30:37;;;;;;;8.57;6.53;;;;;;;-0.93;73.19;96250.19;4975506;28;20062;-49
2021/04/16 04:33:05;;;;;;;9.57;6.15;;;;;;;-0.84;72.92;96252.16;4985897;28;20062;-47
2021/04/16 04:35:33;;;;;;;9.52;6.82;;;;;;;-0.92;73.26;96255.25;4991172;28;20137;-47
2021/04/16 04:38:00;;;;;;;10.13;6.93;;;;;;;-0.84;73.68;96254.00;4990561;28;20112;-48
2021/04/16 04:40:27;;;;;;;12.55;6.70;;;;;;;-0.94;73.46;96254.72;4975873;28;20090;-49
2021/04/16 04:42:55;;;;;;;10.45;7.13;;;;;;;-0.79;73.43;96256.69;4975649;28;20133;-49
2021/04/16 04:45:23;;;;;;;11.00;7.22;;;;;;;-0.72;73.15;96252.75;4988426;28;20054;-49
2021/04/16 04:47:50;;;;;;;9.20;7.18;;;;;;;-0.77;73.76;96255.41;4991055;28;20500;-48
2021/04/16 04:50:19;;;;;;;12.18;6.93;;;;;;;-0.65;72.88;96262.38;4994768;28;20084;-48
2021/04/16 04:52:46;;;;;;;10.40;7.97;;;;;;;-0.75;73.58;96263.94;4989349;28;20054;-48
2021/04/16 04:55:17;;;;;;;9.15;7.80;;;;;;;-0.72;73.99;96266.06;4993295;28;20145;-48
2021/04/16 04:57:43;;;;;;;10.43;7.63;;;;;;;-0.69;74.14;96262.09;4994293;28;20109;-48
2021/04/16 05:00:12;;;;;;;9.93;7.10;;;;;;;-0.55;73.33;96262.50;4990745;28;20128;-50
2021/04/16 05:02:40;;;;;;;9.95;7.43;;;;;;;-0.49;73.56;96264.13;4984589;28;20480;-49
2021/04/16 05:05:08;;;;;;;11.05;7.45;;;;;;;-0.53;73.79;96271.00;4993558;28;20692;-52
2021/04/16 05:07:35;;;;;;;10.82;7.55;;;;;;;-0.62;73.74;96267.19;4994678;28;20571;-50
2021/04/16 05:10:04;;;;;;;9.73;7.45;;;;;;;-0.61;73.85;96266.16;4989681;28;20086;-47
2021/04/16 05:12:30;;;;;;;11.27;8.65;;;;;;;-0.62;74.48;96267.19;4974228;28;20114;-47
2021/04/16 05:14:57;;;;;;;10.30;7.43;;;;;;;-0.51;73.97;96268.91;4975047;28;20051;-48
2021/04/16 05:17:24;;;;;;;13.07;7.63;;;;;;;-0.41;73.87;96268.19;4975248;28;20051;-48
2021/04/16 05:19:51;;;;;;;10.35;8.05;;;;;;;-0.24;73.04;96264.31;4974850;28;20575;-49
2021/04/16 05:22:17;;;;;;;11.75;8.00;;;;;;;-0.31;73.70;96266.41;4973884;28;20142;-48
2021/04/16 05:24:44;;;;;;;9.57;7.60;;;;;;;-0.16;73.06;96264.91;5005843;28;20054;-48
2021/04/16 05:27:13;;;;;;;12.02;7.95;;;;;;;-0.19;73.24;96271.56;4974678;28;20050;-48
2021/04/16 05:29:40;;;;;;;11.38;7.80;;;;;;;-0.08;72.64;96267.09;4973914;28;20500;-50
2021/04/16 05:32:07;;;;;;;10.82;8.70;;;;;;;-0.06;72.90;96273.75;4973916;28;20061;-49
2021/04/16 05:34:34;;;;;;;10.68;8.23;;;;;;;0.06;72.59;96275.41;4977488;28;20154;-46
2021/04/16 05:37:02;;;;;;;10.48;8.13;;;;;;;0.08;72.22;96278.63;5007269;28;20061;-47
2021/04/16 05:39:28;;;;;;;10.00;8.20;;;;;;;0.09;72.38;96277.56;4993694;28;20074;-47
2021/04/16 05:41:55;;;;;;;10.75;7.75;;;;;;;0.24;72.60;96275.00;4987921;28;20046;-46
2021/04/16 05:44:22;;;;;;;10.45;8.25;;;;;;;0.17;72.12;96275.25;4987072;28;20050;-45
2021/04/16 05:46:48;;;;;;;11.43;8.02;;;;;;;0.25;72.16;96283.78;4994210;28;20143;-45
2021/04/16 05:49:15;;;;;;;10.75;7.97;;;;;;;-0.12;73.62;96271.34;4993720;28;20053;-46
2021/04/16 05:51:42;;;;;;;10.93;8.40;;;;;;;-0.02;73.96;96280.16;4991497;28;20096;-47
2021/04/16 05:54:10;;;;;;;11.60;8.18;;;;;;;0.14;73.70;96280.28;4992693;28;20058;-48
2021/04/16 05:56:37;;;;;;;11.82;8.60;;;;;;;0.37;72.73;96279.06;4993608;28;20456;-46
2021/04/16 05:59:03;;;;;;;12.65;8.63;;;;;;;0.18;73.12;96279.50;4989714;28;20129;-44
2021/04/16 06:01:32;;;;;;;11.02;7.90;;;;;;;0.02;73.48;96277.78;4974307;28;20453;-46
2021/04/16 06:03:59;;;;;;;11.82;8.18;;;;;;;0.02;74.18;96282.31;4988880;28;20631;-45
2021/04/16 06:06:26;;;;;;;12.95;9.05;;;;;;;-0.14;74.39;96276.88;5012524;28;20057;-49
2021/04/16 06:08:52;;;;;;;13.05;9.20;;;;;;;-0.14;74.86;96273.44;5013780;28;20049;-47
2021/04/16 06:11:19;;;;;;;13.60;8.50;;;;;;;-0.11;74.75;96279.03;5014023;28;20073;-46
2021/04/16 06:13:46;;;;;;;12.00;8.43;;;;;;;-0.01;74.72;96273.00;5004826;28;20034;-47
2021/04/16 06:16:13;;;;;;;13.27;8.65;;;;;;;0.26;73.71;96280.06;5013255;28;20525;-46
2021/04/16 06:18:39;;;;;;;11.48;8.93;;;;;;;0.50;72.73;96275.94;4995621;28;20054;-46
2021/04/16 06:21:06;;;;;;;11.55;7.90;;;;;;;0.68;72.12;96272.84;4990173;28;20074;-48
2021/04/16 06:23:33;;;;;;;13.05;9.52;;;;;;;0.55;72.93;96275.16;4995954;28;20042;-47
2021/04/16 06:26:01;;;;;;;14.93;9.27;;;;;;;0.66;71.83;96272.28;4993499;28;20050;-48
2021/04/16 06:28:27;;;;;;;10.75;8.27;;;;;;;0.77;71.85;96272.31;4990001;28;20070;-45
2021/04/16 06:30:55;;;;;;;12.32;9.13;;;;;;;0.85;70.86;96261.16;4994010;28;20054;-48
2021/04/16 06:33:29;;;;;;;11.93;8.75;;;;;;;0.91;70.90;96268.91;4991630;28;20428;-48
2021/04/16 06:36:08;;;;;;;13.27;8.27;;;;;;;0.93;71.75;96271.28;4993008;28;20439;-48
2021/04/16 06:38:41;;;;;;;13.65;8.82;;;;;;;0.95;70.72;96258.53;4990389;28;20046;-48
2021/04/16 06:41:20;;;;;;;12.85;8.68;;;;;;;1.05;70.53;96263.88;4993251;28;20057;-47
2021/04/16 06:43:50;;;;;;;14.35;8.60;;;;;;;1.16;69.78;96265.47;4986936;28;20097;-52
2021/04/16 06:46:30;;;;;;;14.48;8.77;;;;;;;1.08;71.52;96257.22;4986360;28;20150;-48
2021/04/16 06:49:04;;;;;;;11.52;8.82;;;;;;;1.00;70.84;96257.72;4991687;28;20065;-49
2021/04/16 06:51:35;;;;;;;11.68;8.95;;;;;;;1.01;70.36;96257.47;4991696;28;20057;-51
2021/04/16 06:54:11;;;;;;;12.15;8.88;;;;;;;1.10;70.05;96249.75;4985465;28;20051;-47
2021/04/16 06:56:43;;;;;;;12.60;8.05;;;;;;;1.22;69.26;96257.50;4973488;28;20519;-47
2021/04/16 06:59:32;;;;;;;14.30;9.18;;;;;;;1.31;68.69;96256.72;4973508;28;20078;-49
2021/04/16 07:02:07;;;;;;;11.80;8.55;;;;;;;1.34;68.45;96255.41;4971827;28;20042;-47
2021/04/16 07:04:57;;;;;;;11.57;8.30;;;;;;;1.09;68.69;96262.28;4972052;28;20512;-49
2021/04/16 07:07:37;;;;;;;13.25;8.15;;;;;;;1.19;68.81;96266.81;4973355;28;20050;-48
2021/04/16 07:10:29;;;;;;;12.38;8.45;;;;;;;0.93;68.32;96263.31;4989199;28;20059;-49
2021/04/16 07:12:59;;;;;;;11.20;8.05;;;;;;;1.21;67.67;96258.59;4973375;28;20138;-48
2021/04/16 07:15:37;;;;;;;10.57;8.05;;;;;;;1.37;67.54;96261.00;4977799;28;20066;-47
2021/04/16 07:18:06;;;;;;;9.75;7.50;;;;;;;1.51;67.11;96266.59;5012187;28;20049;-45
2021/04/16 07:20:45;;;;;;;10.32;7.18;;;;;;;1.69;65.14;96256.47;5012095;28;20104;-46
2021/04/16 07:23:11;;;;;;;10.20;6.93;;;;;;;1.72;66.09;96266.59;5007392;28;20045;-47
2021/04/16 07:25:48;;;;;;;9.35;6.68;;;;;;;1.44;65.69;96260.72;4987806;28;20512;-47
2021/04/16 07:29:04;;;;;;;10.75;7.65;;;;;;;1.60;66.03;96270.34;4986908;28;20189;-46
2021/04/16 07:31:33;;;;;;;12.15;6.13;;;;;;;1.72;64.54;96266.59;4972750;28;20055;-47
2021/04/16 07:34:01;;;;;;;8.18;6.65;;;;;;;1.61;64.64;96271.94;4983126;28;20046;-47
2021/04/16 07:36:40;;;;;;;10.02;7.80;;;;;;;1.82;64.81;96267.41;4992271;28;20062;-46
2021/04/16 07:39:16;;;;;;;9.82;7.45;;;;;;;1.85;65.01;96271.38;4991892;28;20065;-46
2021/04/16 07:42:09;;;;;;;12.23;7.30;;;;;;;1.87;64.11;96277.28;4970541;28;20050;-46
2021/04/16 07:45:01;;;;;;;11.10;7.18;;;;;;;1.96;65.14;96272.19;4989663;28;20165;-46
2021/04/16 07:47:30;;;;;;;9.52;7.25;;;;;;;2.12;64.61;96276.44;4992374;28;20058;-46
2021/04/16 07:50:09;;;;;;;10.18;7.63;;;;;;;2.16;64.01;96277.50;4990211;28;20093;-46
2021/04/16 07:52:39;;;;;;;8.77;6.93;;;;;;;2.29;63.77;96276.94;4972666;28;20062;-48
2021/04/16 07:55:19;;;;;;;9.27;7.20;;;;;;;2.25;63.28;96280.44;4972785;28;20055;-47
2021/04/16 07:57:59;;;;;;;11.18;7.15;;;;;;;2.39;62.02;96280.66;4973286;28;20062;-46
2021/04/16 08:00:38;;;;;;;8.82;7.00;;;;;;;2.39;62.32;96284.13;4972679;28;20164;-45
2021/04/16 08:03:14;;;;;;;12.63;7.80;;;;;;;2.53;61.78;96277.13;4972847;28;20057;-44
2021/04/16 08:05:51;;;;;;;11.50;8.07;;;;;;;2.66;61.49;96280.28;4972145;28;20572;-44
2021/04/16 08:08:17;;;;;;;9.90;7.25;;;;;;;2.87;60.31;96270.34;4972706;28;20051;-48
2021/04/16 08:10:54;;;;;;;8.98;7.55;;;;;;;2.98;59.75;96278.03;4972813;28;20054;-47
2021/04/16 08:13:28;;;;;;;10.65;6.95;;;;;;;3.22;58.87;96277.38;4972026;28;20046;-46
2021/04/16 08:16:39;;;;;;;9.98;6.75;;;;;;;3.07;59.09;96280.13;4972684;28;20095;-50
2021/04/16 08:19:10;;;;;;;9.10;6.95;;;;;;;3.15;59.07;96279.53;4967854;28;20046;-45
2021/04/16 08:21:42;;;;;;;8.45;6.45;;;;;;;3.49;57.15;96274.25;4972726;28;20424;-46
2021/04/16 08:24:19;;;;;;;8.75;6.40;;;;;;;3.75;57.11;96286.38;5006364;28;20138;-45
2021/04/16 08:26:54;;;;;;;8.07;5.75;;;;;;;3.75;56.51;96282.91;4976552;28;20054;-46
2021/04/16 08:29:34;;;;;;;8.35;5.40;;;;;;;3.24;55.95;96283.22;4976183;28;20206;-49
2021/04/16 08:32:10;;;;;;;7.75;5.80;;;;;;;2.99;57.39;96276.97;4976441;28;20082;-46
2021/04/16 08:34:42;;;;;;;7.70;5.72;;;;;;;3.66;57.32;96284.56;4976353;28;20061;-45
2021/04/16 08:37:21;;;;;;;8.18;5.68;;;;;;;4.11;54.31;96286.06;4975054;28;20057;-47
2021/04/16 08:39:48;;;;;;;8.82;6.75;;;;;;;3.51;55.42;96278.25;4976701;28;20054;-43
2021/04/16 08:42:21;;;;;;;9.90;7.22;;;;;;;3.94;55.49;96273.09;4976311;28;20066;-45
2021/04/16 08:45:01;;;;;;;8.57;6.25;;;;;;;3.82;54.22;96275.34;4995506;28;20507;-47
2021/04/16 08:47:32;;;;;;;10.30;6.47;;;;;;;3.82;53.69;96267.31;4995469;28;20195;-49
2021/04/16 08:49:59;;;;;;;10.32;5.50;;;;;;;3.39;53.87;96261.75;4995437;28;20504;-45
2021/04/16 08:52:32;;;;;;;8.80;5.03;;;;;;;3.68;54.82;96266.38;4990157;28;20416;-46
2021/04/16 08:55:35;;;;;;;8.85;5.53;;;;;;;3.79;53.61;96261.72;4975817;28;20079;-48
2021/04/16 08:58:26;;;;;;;8.00;5.60;;;;;;;4.02;52.89;96270.88;4976813;28;20054;-48
2021/04/16 09:01:06;;;;;;;8.70;5.38;;;;;;;3.66;53.06;96260.47;4982963;28;20053;-48
2021/04/16 09:03:54;;;;;;;8.98;5.53;;;;;;;4.13;52.58;96261.69;5010931;28;20531;-48
2021/04/16 09:06:42;;;;;;;7.40;5.45;;;;;;;4.22;52.65;96262.66;4995289;28;20129;-45
2021/04/16 09:09:12;;;;;;;7.88;5.72;;;;;;;4.43;50.64;96272.09;4990698;28;20140;-46
2021/04/16 09:11:45;;;;;;;7.38;5.78;;;;;;;4.58;50.81;96267.63;4975606;28;20078;-45
2021/04/16 09:14:23;;;;;;;7.80;5.57;;;;;;;4.90;51.05;96257.06;4975336;28;20398;-45
2021/04/16 09:17:03;;;;;;;7.25;5.13;;;;;;;5.13;49.62;96254.63;4975529;28;20055;-46
2021/04/16 09:19:30;;;;;;;7.68;5.63;;;;;;;4.45;51.36;96261.91;4975466;28;20071;-49
2021/04/16 09:22:02;;;;;;;9.68;5.43;;;;;;;4.42;50.92;96273.19;4975054;28;20465;-46
2021/04/16 09:24:47;;;;;;;6.22;4.70;;;;;;;4.22;51.24;96268.00;4975194;28;20050;-44
2021/04/16 09:27:43;;;;;;;8.00;5.35;;;;;;;4.28;51.22;96269.56;4975577;28;20113;-41
2021/04/16 09:30:10;;;;;;;6.47;4.70;;;;;;;4.52;52.21;96268.78;4975363;28;20071;-46
2021/04/16 09:33:12;;;;;;;6.05;4.45;;;;;;;3.97;49.64;96261.03;4975237;28;20695;-47
2021/04/16 09:35:38;;;;;;;7.55;5.03;;;;;;;3.29;53.51;96256.47;4974949;28;20069;-42
2021/04/16 09:38:53;;;;;;;8.73;5.88;;;;;;;3.33;54.39;96265.53;4975095;28;20453;-47
2021/04/16 09:41:21;;;;;;;7.20;4.95;;;;;;;3.62;53.90;96260.25;5012098;28;20042;-43
2021/04/16 09:43:54;;;;;;;6.22;4.45;;;;;;;3.50;52.82;96265.94;4978325;28;20471;-47
2021/04/16 09:46:33;;;;;;;7.88;5.10;;;;;;;3.99;51.35;96266.88;4975751;28;20055;-46
2021/04/16 09:49:31;;;;;;;9.63;4.93;;;;;;;3.90;51.99;96269.41;4974231;28;20086;-45
2021/04/16 09:52:18;;;;;;;7.05;4.78;;;;;;;3.99;51.46;96267.69;4974556;28;20070;-47
2021/04/16 09:54:45;;;;;;;7.15;5.50;;;;;;;4.12;51.73;96268.91;4973386;28;20177;-45
2021/04/16 09:57:12;;;;;;;11.15;5.80;;;;;;;4.34;50.69;96265.75;4974825;28;20054;-42
2021/04/16 09:59:41;;;;;;;7.90;5.20;;;;;;;4.92;50.25;96254.91;4974840;28;20059;-42
2021/04/16 10:02:10;;;;;;;7.13;5.00;;;;;;;4.28;49.79;96256.16;4974548;28;20484;-44
2021/04/16 10:04:55;;;;;;;6.43;4.57;;;;;;;4.20;48.83;96262.16;4974391;28;20533;-42
2021/04/16 10:07:44;;;;;;;6.07;4.47;;;;;;;5.01;48.28;96251.59;4975002;28;20133;-46
2021/04/16 10:10:26;;;;;;;7.03;4.43;;;;;;;5.09;46.61;96250.94;4969893;28;20512;-45
2021/04/16 10:13:17;;;;;;;9.50;4.63;;;;;;;4.93;47.00;96247.66;4974268;28;20362;-48
2021/04/16 10:15:49;;;;;;;7.53;4.30;;;;;;;4.80;48.07;96241.09;4976638;28;20296;-46
2021/04/16 10:18:28;;;;;;;9.52;4.50;;;;;;;4.79;47.59;96249.44;4976503;28;20460;-45
2021/04/16 10:20:57;;;;;;;6.60;5.03;;;;;;;4.67;47.83;96245.28;5007804;28;20097;-45
2021/04/16 10:23:30;;;;;;;6.55;4.20;;;;;;;4.96;46.92;96240.91;4973696;28;20046;-47
2021/04/16 10:27:09;;;;;;;6.70;4.20;;;;;;;4.65;47.61;96244.00;4974104;28;20078;-45
2021/04/16 12:39:47;;;;;;;6.00;5.15;;;;;;;7.44;39.86;96196.38;4972007;28;20059;-46
2021/04/16 12:42:13;;;;;;;6.38;5.30;;;;;;;9.21;39.13;96196.50;4972029;28;20408;-45
2021/04/16 12:44:44;;;;;;;8.15;4.80;;;;;;;8.97;38.49;96199.66;4991651;28;20054;-48
2021/04/16 12:47:14;;;;;;;11.23;5.00;;;;;;;9.40;37.49;96201.59;4991750;28;20153;-48
2021/04/16 12:49:41;;;;;;;9.38;5.00;;;;;;;8.95;36.12;96198.38;4991657;28;20054;-45
2021/04/16 12:52:08;;;;;;;6.13;4.57;;;;;;;8.05;36.52;96193.28;4974856;28;20055;-45
2021/04/16 12:54:39;;;;;;;7.53;4.82;;;;;;;7.61;38.84;96187.63;4972137;28;20046;-44
2021/04/16 12:57:09;;;;;;;6.38;5.10;;;;;;;8.33;37.71;96193.88;4972009;28;20489;-48
2021/04/16 12:59:37;;;;;;;6.47;5.32;;;;;;;9.32;36.37;96186.19;4972363;28;20086;-48
2021/04/16 13:02:07;;;;;;;7.30;5.55;;;;;;;9.34;38.25;96189.38;4971855;28;20047;-48
2021/04/16 13:04:41;;;;;;;7.95;5.03;;;;;;;9.49;36.17;96191.59;4972016;28;20039;-45
2021/04/16 13:07:08;;;;;;;8.73;5.32;;;;;;;8.63;36.97;96187.66;4972509;28;20058;-46
2021/04/16 13:09:36;;;;;;;6.95;5.00;;;;;;;8.70;37.92;96181.03;4973593;28;20057;-49
2021/04/16 13:12:03;;;;;;;6.68;4.88;;;;;;;8.89;38.11;96189.63;4975133;28;20058;-46
2021/04/16 13:14:29;;;;;;;8.95;5.45;;;;;;;7.79;38.46;96190.44;4975476;28;20497;-45
2021/04/16 13:16:56;;;;;;;5.97;5.00;;;;;;;7.13;40.85;96180.13;4975866;28;20063;-44
2021/04/16 13:19:30;;;;;;;9.45;5.35;;;;;;;7.62;41.45;96183.84;4975567;28;20054;-47
2021/04/16 13:22:05;;;;;;;7.63;5.68;;;;;;;7.23;40.57;96185.28;4973904;28;20141;-47
2021/04/16 13:24:33;;;;;;;7.20;5.57;;;;;;;7.46;40.44;96182.59;4975300;28;20049;-47
2021/04/16 13:27:03;;;;;;;6.80;5.18;;;;;;;7.62;39.64;96183.84;4973954;28;20447;-46
2021/04/16 13:29:31;;;;;;;5.90;4.95;;;;;;;7.83;40.02;96180.63;4975829;28;20039;-47
2021/04/16 13:32:01;;;;;;;7.97;6.55;;;;;;;7.30;39.57;96176.00;4975139;28;20050;-48
2021/04/16 13:34:30;;;;;;;9.48;5.38;;;;;;;7.54;39.24;96173.81;4975639;28;20050;-50
2021/04/16 13:36:56;;;;;;;7.00;5.25;;;;;;;7.76;38.70;96170.28;4974901;28;20113;-49
2021/04/16 13:39:23;;;;;;;8.50;5.10;;;;;;;8.46;39.22;96166.06;4974935;28;20051;-46
2021/04/16 13:41:50;;;;;;;12.02;6.07;;;;;;;8.43;37.03;96167.47;4974587;28;20053;-48
2021/04/16 13:44:16;;;;;;;6.10;5.40;;;;;;;7.73;38.87;96163.66;4974889;28;20109;-45
2021/04/16 13:46:48;;;;;;;7.65;5.40;;;;;;;8.22;37.07;96169.09;4975070;28;20074;-45
2021/04/16 13:49:20;;;;;;;9.35;5.78;;;;;;;8.20;38.55;96161.31;5006197;28;20058;-42
2021/04/16 13:51:48;;;;;;;6.45;5.07;;;;;;;8.82;36.70;96156.94;4974515;28;20060;-47
2021/04/16 13:54:16;;;;;;;6.15;4.85;;;;;;;8.34;37.02;96155.81;4974550;28;20047;-49
2021/04/16 13:56:42;;;;;;;14.32;5.65;;;;;;;8.33;37.66;96161.53;4989903;28;20113;-49
2021/04/16 13:59:09;;;;;;;6.82;5.00;;;;;;;8.65;36.21;96147.69;4975808;28;20493;-45
2021/04/16 14:01:36;;;;;;;7.13;5.32;;;;;;;8.78;38.13;96143.28;4975606;28;20046;-44
2021/04/16 14:04:06;;;;;;;5.80;4.40;;;;;;;9.86;36.55;96148.78;4990000;23;20061;-43
2021/04/16 14:06:36;;;;;;;6.80;5.03;;;;;;;8.55;37.62;96149.91;4994083;28;20442;-44